Flight Track Log - Related Links

Times and Time Zones

All times are in EDT time to prevent confusion due to time zone crossing. See the RPA4937 flight status page for this flight to view local times or setup timezone preferences in your user account.


Time Position Orientation Groundspeed Altitude Reporting Facility
EDT Latitude Longitude Course Direction KTS MPH feet Rate Location/Type
Wed 05:44:20 AM 39.1500 -76.6500 38° Northeast 187 215 2,000  Level Potomac TRACON
Wed 05:45:20 AM 39.1667 -76.5833 72° East 207 238 4,800 2,900 Climbing Potomac TRACON
Wed 05:46:00 AM 39.1500 -76.3034 90° East  Level FlightAware Approximate
Wed 05:46:20 AM 39.2000 -76.5167 57° Northeast 214 246 7,800  Level Potomac TRACON
Wed 05:47:00 AM 39.1696 -76.1905 46° Northeast  Level FlightAware Approximate
Wed 05:47:20 AM 39.2333 -76.4667 49° Northeast 221 254 10,800  Level Potomac TRACON
Wed 05:48:00 AM 39.2410 -76.1090 38° Northeast  Level FlightAware Approximate
Wed 05:48:14 AM 39.2667 -76.3833 63° Northeast 280 322 11,000  Level Potomac TRACON
Wed 05:49:00 AM 39.3097 -76.0236 38° Northeast  Level FlightAware Approximate
Wed 05:49:21 AM 39.3167 -76.2833 57° Northeast 295 339 11,000  Level Potomac TRACON
Wed 05:50:21 AM 39.3667 -76.2000 52° Northeast 295 339 11,000  Level Potomac TRACON
Wed 05:51:54 AM 39.4333 -76.0667 57° Northeast 292 336 11,000  Level Philadelphia TRACON
Wed 05:52:54 AM 39.4833 -75.9833 52° Northeast 291 335 11,000  Level Philadelphia TRACON
Wed 05:53:54 AM 39.5167 -75.8833 67° East 292 336 11,000  Level Philadelphia TRACON
Wed 05:54:54 AM 39.5500 -75.8000 63° Northeast 291 335 11,000  Level Philadelphia TRACON
Wed 05:55:54 AM 39.5833 -75.7000 67° East 291 335 11,000  Level Philadelphia TRACON
Wed 05:56:54 AM 39.6167 -75.6000 67° East 291 335 11,000  Level Philadelphia TRACON
Wed 05:57:48 AM 39.6500 -75.5167 63° Northeast 291 335 11,000  Level Philadelphia TRACON
Wed 05:58:54 AM 39.7000 -75.4167 57° Northeast 290 334 11,000  Level Philadelphia TRACON
Wed 05:59:54 AM 39.7333 -75.3167 67° East 289 333 11,000  Level Philadelphia TRACON
Wed 06:01:00 AM 39.7726 -75.2250 61° Northeast  Level FlightAware Approximate

Login

Don't have an account? Register now (free) for customized features, flight alerts, and more!